createdAt,value
2019-05-21T00:02:10.947Z,14.36
2019-05-21T00:04:37.921Z,14.24
2019-05-21T00:07:04.896Z,14.34
2019-05-21T00:09:31.848Z,14.41
2019-05-21T00:11:58.841Z,14.43
2019-05-21T00:14:25.810Z,14.27
2019-05-21T00:16:52.753Z,14.34
2019-05-21T00:19:19.749Z,14.22
2019-05-21T00:21:46.693Z,14.19
2019-05-21T00:24:13.655Z,14.03
2019-05-21T00:26:40.668Z,14.12
2019-05-21T00:29:44.312Z,14.11
2019-05-21T00:32:48.203Z,13.93
2019-05-21T00:35:52.542Z,13.91
2019-05-21T00:38:55.965Z,13.92
2019-05-21T00:42:00.029Z,14.06
2019-05-21T00:44:28.598Z,13.96
2019-05-21T00:46:55.585Z,13.95
2019-05-21T00:49:22.565Z,14.03
2019-05-21T00:51:49.515Z,14.03
2019-05-21T00:54:16.505Z,13.91
2019-05-21T00:56:43.468Z,14.03
2019-05-21T00:59:10.418Z,13.90
2019-05-21T01:01:37.410Z,13.93
2019-05-21T01:04:04.360Z,13.89
2019-05-21T01:06:31.316Z,13.93
2019-05-21T01:08:58.354Z,13.94
2019-05-21T01:11:25.356Z,13.85
2019-05-21T01:13:52.311Z,13.84
2019-05-21T01:16:19.304Z,13.76
2019-05-21T01:18:46.271Z,13.79
2019-05-21T01:21:13.240Z,13.87
2019-05-21T01:23:40.243Z,13.79
2019-05-21T01:26:07.212Z,13.86
2019-05-21T01:28:34.170Z,13.79
2019-05-21T01:31:01.155Z,13.74
2019-05-21T01:33:28.121Z,13.67
2019-05-21T01:35:55.143Z,13.60
2019-05-21T01:38:22.128Z,13.67
2019-05-21T01:40:49.105Z,13.77
2019-05-21T01:43:16.116Z,13.72
2019-05-21T01:45:43.096Z,13.72
2019-05-21T01:48:10.040Z,13.67
2019-05-21T01:50:37.030Z,13.62
2019-05-21T01:53:04.034Z,13.63
2019-05-21T01:55:30.962Z,13.69
2019-05-21T01:57:57.961Z,13.74
2019-05-21T02:00:24.930Z,13.71
2019-05-21T02:02:51.885Z,13.61
2019-05-21T02:05:32.139Z,13.69
2019-05-21T02:07:47.764Z,13.69
2019-05-21T02:10:14.790Z,13.77
2019-05-21T02:12:41.791Z,13.59
2019-05-21T02:15:08.845Z,13.62
2019-05-21T02:17:35.812Z,13.59
2019-05-21T02:20:03.139Z,13.62
2019-05-21T02:22:30.104Z,13.62
2019-05-21T02:24:57.062Z,13.55
2019-05-21T02:27:24.048Z,13.52
2019-05-21T02:29:51.025Z,13.47
2019-05-21T02:32:17.992Z,13.38
2019-05-21T02:34:44.984Z,13.41
2019-05-21T02:37:11.949Z,13.45
2019-05-21T02:39:38.958Z,13.55
2019-05-21T02:42:05.995Z,13.67
2019-05-21T02:44:33.013Z,13.51
2019-05-21T02:47:00.010Z,13.50
2019-05-21T02:49:26.990Z,13.38
2019-05-21T02:51:53.969Z,13.46
2019-05-21T02:54:37.503Z,13.37
2019-05-21T02:56:49.809Z,13.28
2019-05-21T02:59:16.777Z,13.13
2019-05-21T03:01:50.418Z,13.09
2019-05-21T03:04:17.384Z,13.13
2019-05-21T03:06:44.350Z,13.21
2019-05-21T03:09:11.325Z,13.08
2019-05-21T03:11:38.378Z,13.12
2019-05-21T03:14:05.415Z,13.28
2019-05-21T03:16:32.361Z,13.24
2019-05-21T03:18:59.438Z,13.10
2019-05-21T03:21:26.395Z,13.11
2019-05-21T03:23:53.358Z,13.15
2019-05-21T03:26:20.376Z,13.17
2019-05-21T03:28:47.349Z,13.30
2019-05-21T03:31:14.315Z,13.21
2019-05-21T03:33:41.341Z,13.15
2019-05-21T03:36:08.378Z,13.02
2019-05-21T03:38:35.379Z,13.14
2019-05-21T03:41:02.434Z,13.03
2019-05-21T03:43:29.425Z,13.07
2019-05-21T03:45:56.427Z,13.10
2019-05-21T03:48:23.436Z,13.05
2019-05-21T03:50:50.495Z,13.13
2019-05-21T03:53:17.439Z,13.14
2019-05-21T03:55:44.511Z,13.21
2019-05-21T03:58:11.475Z,13.08
2019-05-21T04:00:38.470Z,13.02
2019-05-21T04:03:06.094Z,12.96
2019-05-21T04:05:33.063Z,12.84
2019-05-21T04:08:00.038Z,12.95
2019-05-21T04:10:27.641Z,12.93
2019-05-21T04:13:07.589Z,13.07
2019-05-21T04:15:55.515Z,12.99
2019-05-21T04:18:27.050Z,12.88
2019-05-21T04:20:54.088Z,12.88
2019-05-21T04:23:21.105Z,12.93
2019-05-21T04:25:48.075Z,12.93
2019-05-21T04:28:15.039Z,12.96
2019-05-21T04:30:42.036Z,12.89
2019-05-21T04:33:09.001Z,12.83
2019-05-21T04:35:35.945Z,12.89
2019-05-21T04:38:02.950Z,12.88
2019-05-21T04:40:29.923Z,12.83
2019-05-21T04:42:59.200Z,12.77
2019-05-21T04:45:25.772Z,12.77
2019-05-21T04:47:52.774Z,12.71
2019-05-21T04:50:19.722Z,12.63
2019-05-21T04:52:46.751Z,12.74
2019-05-21T04:55:13.806Z,12.82
2019-05-21T04:57:40.771Z,12.96
2019-05-21T05:00:07.854Z,12.80
2019-05-21T05:02:34.821Z,12.82
2019-05-21T05:05:01.951Z,12.81
2019-05-21T05:07:29.112Z,12.61
2019-05-21T05:09:56.094Z,12.65
2019-05-21T05:12:23.045Z,12.65
2019-05-21T05:14:50.091Z,12.63
2019-05-21T05:17:17.053Z,12.73
2019-05-21T05:19:44.009Z,12.67
2019-05-21T05:22:10.995Z,12.69
2019-05-21T05:24:37.971Z,12.67
2019-05-21T05:27:04.991Z,12.63
2019-05-21T05:29:31.976Z,12.63
2019-05-21T05:31:58.928Z,12.57
2019-05-21T05:34:25.877Z,12.62
2019-05-21T05:36:52.855Z,12.72
2019-05-21T05:39:19.836Z,12.70
2019-05-21T05:41:46.817Z,12.72
2019-05-21T05:44:13.788Z,12.76
2019-05-21T05:46:40.781Z,12.63
2019-05-21T05:49:16.474Z,12.55
2019-05-21T05:51:43.671Z,12.62
2019-05-21T05:54:10.622Z,12.49
2019-05-21T05:56:37.809Z,12.48
2019-05-21T05:59:04.753Z,12.53
2019-05-21T06:01:33.120Z,12.62
2019-05-21T06:04:00.097Z,12.73
2019-05-21T06:06:27.063Z,12.53
2019-05-21T06:08:54.030Z,12.67
2019-05-21T06:11:21.143Z,12.67
2019-05-21T06:13:48.161Z,12.77
2019-05-21T06:16:15.122Z,12.82
2019-05-21T06:18:42.105Z,12.81
2019-05-21T06:21:09.067Z,12.83
2019-05-21T06:23:36.079Z,12.75
2019-05-21T06:26:03.314Z,12.69
2019-05-21T06:28:30.302Z,12.74
2019-05-21T06:30:57.275Z,12.75
2019-05-21T06:33:24.233Z,12.75
2019-05-21T06:35:51.218Z,12.74
2019-05-21T06:38:18.584Z,12.90
2019-05-21T06:40:45.657Z,12.85
2019-05-21T06:43:12.657Z,13.02
2019-05-21T06:45:39.835Z,12.95
2019-05-21T06:48:06.835Z,12.95
2019-05-21T06:50:37.245Z,12.95
2019-05-21T06:53:02.708Z,12.85
2019-05-21T06:55:29.685Z,12.92
2019-05-21T06:57:56.691Z,12.87
2019-05-21T07:00:23.957Z,12.87
2019-05-21T07:02:50.914Z,12.98
2019-05-21T07:05:17.887Z,12.99
2019-05-21T07:07:44.847Z,12.97
2019-05-21T07:10:12.399Z,13.12
2019-05-21T07:12:39.398Z,13.08
2019-05-21T07:15:06.571Z,12.99
2019-05-21T07:17:33.538Z,13.03
2019-05-21T07:20:00.546Z,13.15
2019-05-21T07:22:27.513Z,13.07
2019-05-21T07:24:54.484Z,13.21
2019-05-21T07:27:21.546Z,13.24
2019-05-21T07:29:48.505Z,13.24
2019-05-21T07:32:15.468Z,13.17
2019-05-21T07:34:42.447Z,13.16
2019-05-21T07:37:09.430Z,13.31
2019-05-21T07:39:36.399Z,13.38
2019-05-21T07:42:03.407Z,13.17
2019-05-21T07:44:30.355Z,13.27
2019-05-21T07:46:57.378Z,13.27
2019-05-21T07:49:24.407Z,13.29
2019-05-21T07:51:51.389Z,13.37
2019-05-21T07:54:18.358Z,13.25
2019-05-21T07:56:45.370Z,13.31
2019-05-21T07:59:12.325Z,13.37
2019-05-21T08:01:39.286Z,13.34
2019-05-21T08:04:06.441Z,13.31
2019-05-21T08:06:33.454Z,13.24
2019-05-21T08:09:12.396Z,13.25
2019-05-21T08:11:29.354Z,13.31
2019-05-21T08:13:56.441Z,13.31
2019-05-21T08:16:23.409Z,13.28
2019-05-21T08:18:50.374Z,13.38
2019-05-21T08:21:17.333Z,13.27
2019-05-21T08:23:44.302Z,13.40
2019-05-21T08:26:11.266Z,13.41
2019-05-21T08:28:38.287Z,13.41
2019-05-21T08:31:05.253Z,13.35
2019-05-21T08:33:32.317Z,13.45
2019-05-21T08:35:59.836Z,13.39
2019-05-21T08:38:26.824Z,13.42
2019-05-21T08:40:53.787Z,13.52
2019-05-21T08:43:22.245Z,13.65
2019-05-21T08:45:49.353Z,13.78
2019-05-21T08:48:16.374Z,13.58
2019-05-21T08:50:43.343Z,13.72
2019-05-21T08:53:10.341Z,13.70
2019-05-21T08:55:37.318Z,13.73
2019-05-21T08:58:07.369Z,13.83
2019-05-21T09:00:33.183Z,13.88
2019-05-21T09:03:00.221Z,13.85
2019-05-21T09:05:27.190Z,13.79
2019-05-21T09:07:54.337Z,13.88
2019-05-21T09:10:21.346Z,13.84
2019-05-21T09:12:48.323Z,13.78
2019-05-21T09:15:16.698Z,13.81
2019-05-21T09:17:43.814Z,13.95
2019-05-21T09:20:11.785Z,13.89
2019-05-21T09:22:38.838Z,13.87
2019-05-21T09:25:07.075Z,13.92
2019-05-21T09:27:36.410Z,14.04
2019-05-21T09:30:05.029Z,13.88
2019-05-21T09:32:32.106Z,14.09
2019-05-21T09:34:59.100Z,14.14
2019-05-21T09:37:26.037Z,14.19
2019-05-21T09:39:53.037Z,14.13
2019-05-21T09:42:19.994Z,14.33
2019-05-21T09:44:46.998Z,14.18
2019-05-21T09:47:13.999Z,14.18
2019-05-21T09:49:40.991Z,14.44
2019-05-21T09:52:07.955Z,14.42
2019-05-21T09:54:35.069Z,14.46
2019-05-21T09:57:03.410Z,14.43
2019-05-21T09:59:37.838Z,14.54
2019-05-21T10:02:09.229Z,14.58
2019-05-21T10:04:36.197Z,14.63
2019-05-21T10:07:03.409Z,14.64
2019-05-21T10:09:30.382Z,14.61
2019-05-21T10:11:57.377Z,14.79
2019-05-21T10:14:24.341Z,14.83
2019-05-21T10:16:51.303Z,14.83
2019-05-21T10:19:18.325Z,14.91
2019-05-21T10:21:45.274Z,14.82
2019-05-21T10:24:12.237Z,14.71
2019-05-21T10:26:39.216Z,14.59
2019-05-21T10:29:06.193Z,14.73
2019-05-21T10:31:33.172Z,14.73
2019-05-21T10:34:00.159Z,14.63
2019-05-21T10:36:27.123Z,14.71
2019-05-21T10:38:54.099Z,14.78
2019-05-21T10:41:21.085Z,14.77
2019-05-21T10:43:48.100Z,14.92
2019-05-21T10:46:15.141Z,14.87
2019-05-21T10:48:42.122Z,14.88
2019-05-21T10:51:09.486Z,14.91
2019-05-21T10:53:36.482Z,14.95
2019-05-21T10:56:03.616Z,14.84
2019-05-21T10:58:30.676Z,14.78
2019-05-21T11:01:05.302Z,14.82
2019-05-21T11:04:03.964Z,14.88
2019-05-21T11:06:31.192Z,14.88
2019-05-21T11:08:58.172Z,14.98
2019-05-21T11:11:25.137Z,15.09
2019-05-21T11:13:52.102Z,15.03
2019-05-21T11:16:19.108Z,14.94
2019-05-21T11:18:46.067Z,14.96
2019-05-21T11:21:13.039Z,15.03
2019-05-21T11:23:40.051Z,15.03
2019-05-21T11:26:07.141Z,15.02
2019-05-21T11:28:34.136Z,15.15
2019-05-21T11:31:01.132Z,15.17
2019-05-21T11:33:28.116Z,15.28
2019-05-21T11:35:55.094Z,15.30
2019-05-21T11:38:22.084Z,15.30
2019-05-21T11:40:51.127Z,15.42
2019-05-21T11:43:18.024Z,15.57
2019-05-21T11:45:45.003Z,15.44
2019-05-21T11:48:12.009Z,15.42
2019-05-21T11:50:39.590Z,15.45
2019-05-21T11:53:07.346Z,15.56
2019-05-21T11:55:34.284Z,15.54
2019-05-21T11:58:01.282Z,15.65
2019-05-21T12:00:28.492Z,15.70
2019-05-21T12:02:55.497Z,15.69
2019-05-21T12:05:22.637Z,15.64
2019-05-21T12:07:49.640Z,15.73
2019-05-21T12:10:16.595Z,15.86
2019-05-21T12:12:43.740Z,16.01
2019-05-21T12:15:11.047Z,16.22
2019-05-21T12:17:38.043Z,16.11
2019-05-21T12:20:06.058Z,16.17
2019-05-21T12:22:32.989Z,16.24
2019-05-21T12:24:59.995Z,16.16
2019-05-21T12:27:26.930Z,16.29
2019-05-21T12:29:53.890Z,16.43
2019-05-21T12:32:21.484Z,16.56
2019-05-21T12:34:48.904Z,16.66
2019-05-21T12:37:15.879Z,16.69
2019-05-21T12:39:42.830Z,16.76
2019-05-21T12:42:09.896Z,16.85
2019-05-21T12:44:36.849Z,16.92
2019-05-21T12:47:03.861Z,16.90
2019-05-21T12:49:31.987Z,16.88
2019-05-21T12:51:59.094Z,16.92
2019-05-21T12:54:26.118Z,17.00
2019-05-21T12:56:53.114Z,17.07
2019-05-21T12:59:20.008Z,17.05
2019-05-21T13:01:46.992Z,16.94
2019-05-21T13:04:13.961Z,16.78
2019-05-21T13:06:40.927Z,16.80
2019-05-21T13:09:08.390Z,16.92
2019-05-21T13:11:35.489Z,16.73
2019-05-21T13:14:02.440Z,17.04
2019-05-21T13:16:29.408Z,16.86
2019-05-21T13:18:56.378Z,16.82
2019-05-21T13:21:23.446Z,16.66
2019-05-21T13:23:50.531Z,16.61
2019-05-21T13:26:17.489Z,16.60
2019-05-21T13:28:44.470Z,16.49
2019-05-21T13:31:11.445Z,16.60
2019-05-21T13:33:38.421Z,16.54
2019-05-21T13:36:05.402Z,16.49
2019-05-21T13:38:32.370Z,16.32
2019-05-21T13:40:59.630Z,16.20
2019-05-21T13:43:26.633Z,16.23
2019-05-21T13:45:53.586Z,16.27
2019-05-21T13:48:20.586Z,16.30
2019-05-21T13:50:47.575Z,16.22
2019-05-21T13:53:14.653Z,16.13
2019-05-21T13:55:41.645Z,16.20
2019-05-21T13:58:08.674Z,16.29
2019-05-21T14:00:51.730Z,16.29
2019-05-21T14:03:18.706Z,16.21
2019-05-21T14:05:45.965Z,16.35
2019-05-21T14:08:12.921Z,16.42
2019-05-21T14:10:39.947Z,16.38
2019-05-21T14:13:07.026Z,16.33
2019-05-21T14:15:33.976Z,16.31
2019-05-21T14:18:00.958Z,16.20
2019-05-21T14:20:27.989Z,16.30
2019-05-21T14:22:55.023Z,16.53
2019-05-21T14:25:22.105Z,16.71
2019-05-21T14:27:49.153Z,16.70
2019-05-21T14:30:16.118Z,16.77
2019-05-21T14:32:43.076Z,16.85
2019-05-21T14:35:10.031Z,16.70
2019-05-21T14:37:36.996Z,16.60
2019-05-21T14:40:07.581Z,16.52
2019-05-21T14:42:34.600Z,16.55
2019-05-21T14:45:01.543Z,16.54
2019-05-21T14:47:28.558Z,16.49
2019-05-21T14:49:55.555Z,16.64
2019-05-21T14:52:22.549Z,16.42
2019-05-21T14:54:49.507Z,16.36
2019-05-21T14:57:16.495Z,16.22
2019-05-21T14:59:43.524Z,16.37
2019-05-21T15:02:10.475Z,16.24
2019-05-21T15:04:37.709Z,16.20
2019-05-21T15:07:04.930Z,16.21
2019-05-21T15:09:31.897Z,16.19
2019-05-21T15:11:58.877Z,16.14
2019-05-21T15:14:25.889Z,16.17
2019-05-21T15:16:52.842Z,16.13
2019-05-21T15:19:20.757Z,15.99
2019-05-21T15:21:50.954Z,15.92
2019-05-21T15:24:17.948Z,15.98
2019-05-21T15:26:44.901Z,15.90
2019-05-21T15:29:11.879Z,15.86
2019-05-21T15:31:38.878Z,15.68
2019-05-21T15:34:05.880Z,15.67
2019-05-21T15:36:32.820Z,15.47
2019-05-21T15:38:59.779Z,15.62
2019-05-21T15:41:26.752Z,15.57
2019-05-21T15:43:53.723Z,15.55
2019-05-21T15:46:20.724Z,15.64
2019-05-21T15:48:47.763Z,15.55
2019-05-21T15:51:14.775Z,15.49
2019-05-21T15:53:41.753Z,15.61
2019-05-21T15:56:08.726Z,15.64
2019-05-21T15:58:35.720Z,15.58
2019-05-21T16:01:02.712Z,15.63
2019-05-21T16:03:29.654Z,15.50
2019-05-21T16:05:56.746Z,15.39
2019-05-21T16:08:23.707Z,15.17
2019-05-21T16:10:50.690Z,15.23
2019-05-21T16:13:17.690Z,15.09
2019-05-21T16:15:44.738Z,15.26
2019-05-21T16:18:11.701Z,15.24
2019-05-21T16:20:42.268Z,15.25
2019-05-21T16:23:07.633Z,15.21
2019-05-21T16:25:34.592Z,15.19
2019-05-21T16:28:01.555Z,15.07
2019-05-21T16:30:28.539Z,14.89
2019-05-21T16:32:55.555Z,14.78
2019-05-21T16:35:22.612Z,14.66
2019-05-21T16:37:49.580Z,14.59
2019-05-21T16:40:16.756Z,14.55
2019-05-21T16:42:43.770Z,14.66
2019-05-21T16:45:11.036Z,14.63
2019-05-21T16:47:45.665Z,14.66
2019-05-21T16:50:07.522Z,14.63
2019-05-21T16:52:34.573Z,14.74
2019-05-21T16:55:01.567Z,14.53
2019-05-21T16:57:28.596Z,14.29
2019-05-21T16:59:56.119Z,14.17
2019-05-21T17:02:23.193Z,14.03
2019-05-21T17:04:50.130Z,14.17
2019-05-21T17:07:17.094Z,14.15
2019-05-21T17:09:44.069Z,14.19
2019-05-21T17:12:11.270Z,14.27
2019-05-21T17:14:38.237Z,14.34
2019-05-21T17:17:05.208Z,14.39
2019-05-21T17:19:32.210Z,14.28
2019-05-21T17:21:59.179Z,14.26
2019-05-21T17:24:26.145Z,14.30
2019-05-21T17:26:53.118Z,14.26
2019-05-21T17:29:20.084Z,14.31
2019-05-21T17:31:47.042Z,14.09
2019-05-21T17:34:14.077Z,14.10
2019-05-21T17:36:41.039Z,14.15
2019-05-21T17:39:08.013Z,14.11
2019-05-21T17:41:35.099Z,13.97
2019-05-21T17:44:02.039Z,14.00
2019-05-21T17:46:29.133Z,14.07
2019-05-21T17:48:56.150Z,14.02
2019-05-21T17:51:23.200Z,13.96
2019-05-21T17:53:50.190Z,13.93
2019-05-21T17:56:17.162Z,13.95
2019-05-21T17:58:44.121Z,13.89
2019-05-21T18:01:11.521Z,13.81
2019-05-21T18:03:38.701Z,13.72
2019-05-21T18:06:06.573Z,13.71
2019-05-21T18:08:34.037Z,13.79
2019-05-21T18:11:01.476Z,13.74
2019-05-21T18:13:28.780Z,13.72
2019-05-21T18:15:55.940Z,13.62
2019-05-21T18:18:23.029Z,13.69
2019-05-21T18:20:50.303Z,13.78
2019-05-21T18:23:17.719Z,13.49
2019-05-21T18:25:44.723Z,13.49
2019-05-21T18:28:11.877Z,13.49
2019-05-21T18:30:39.294Z,13.56
2019-05-21T18:33:06.252Z,13.51
2019-05-21T18:35:33.235Z,13.62
2019-05-21T18:38:00.201Z,13.71
2019-05-21T18:40:27.430Z,13.61
2019-05-21T18:42:54.509Z,13.50
2019-05-21T18:45:21.471Z,13.62
2019-05-21T18:47:48.416Z,13.67
2019-05-21T18:50:15.867Z,13.44
2019-05-21T18:52:42.818Z,13.50
2019-05-21T18:55:10.323Z,13.39
2019-05-21T18:57:37.346Z,13.31
2019-05-21T19:00:04.433Z,13.46
2019-05-21T19:02:31.498Z,13.37
2019-05-21T19:04:58.470Z,13.47
2019-05-21T19:07:25.465Z,13.31
2019-05-21T19:09:52.431Z,13.39
2019-05-21T19:12:19.476Z,13.37
2019-05-21T19:14:46.595Z,13.44
2019-05-21T19:17:13.555Z,13.45
2019-05-21T19:19:40.506Z,13.30
2019-05-21T19:22:07.485Z,13.13
2019-05-21T19:24:34.465Z,13.16
2019-05-21T19:27:01.468Z,13.16
2019-05-21T19:29:28.434Z,13.02
2019-05-21T19:31:55.388Z,13.13
2019-05-21T19:34:22.374Z,13.21
2019-05-21T19:36:49.347Z,13.03
2019-05-21T19:39:16.914Z,13.17
2019-05-21T19:41:43.983Z,13.13
2019-05-21T19:44:11.063Z,13.11
2019-05-21T19:46:38.060Z,13.20
2019-05-21T19:49:05.053Z,13.17
2019-05-21T19:51:32.312Z,13.30
2019-05-21T19:53:59.283Z,13.15
2019-05-21T19:56:26.297Z,13.15
2019-05-21T19:58:53.363Z,13.13
2019-05-21T20:01:20.391Z,13.21
2019-05-21T20:03:48.384Z,13.14
2019-05-21T20:06:16.178Z,12.98
2019-05-21T20:08:43.326Z,12.91
2019-05-21T20:11:10.619Z,12.78
2019-05-21T20:13:37.592Z,12.74
2019-05-21T20:16:05.864Z,12.83
2019-05-21T20:18:32.808Z,12.90
2019-05-21T20:21:00.691Z,12.96
2019-05-21T20:23:28.176Z,12.83
2019-05-21T20:25:56.989Z,12.77
2019-05-21T20:28:24.501Z,12.87
2019-05-21T20:30:51.969Z,12.80
2019-05-21T20:33:19.044Z,12.83
2019-05-21T20:35:46.670Z,12.76
2019-05-21T20:38:13.640Z,12.72
2019-05-21T20:40:40.656Z,12.83
2019-05-21T20:43:08.381Z,12.83
2019-05-21T20:45:39.260Z,12.77
2019-05-21T20:48:06.337Z,12.82
2019-05-21T20:50:33.427Z,12.82
2019-05-21T20:53:00.553Z,12.72
2019-05-21T20:55:28.123Z,12.80
2019-05-21T20:57:55.420Z,12.72
2019-05-21T21:00:29.081Z,12.88
2019-05-21T21:02:56.174Z,12.99
2019-05-21T21:05:23.692Z,12.96
2019-05-21T21:07:51.215Z,12.85
2019-05-21T21:10:18.138Z,12.90
2019-05-21T21:12:45.469Z,12.82
2019-05-21T21:15:13.936Z,12.86
2019-05-21T21:17:40.898Z,12.72
2019-05-21T21:20:08.187Z,12.89
2019-05-21T21:22:35.251Z,12.95
2019-05-21T21:25:02.796Z,12.90
2019-05-21T21:27:30.060Z,12.90
2019-05-21T21:29:57.244Z,13.05
2019-05-21T21:32:24.254Z,13.10
2019-05-21T21:34:51.205Z,12.94
2019-05-21T21:37:18.160Z,13.02
2019-05-21T21:39:45.136Z,13.12
2019-05-21T21:42:12.746Z,13.04
2019-05-21T21:44:40.524Z,13.02
2019-05-21T21:47:07.523Z,12.90
2019-05-21T21:49:34.965Z,12.89
2019-05-21T21:52:02.023Z,12.78
2019-05-21T21:54:29.671Z,12.95
2019-05-21T21:56:56.568Z,12.95
2019-05-21T21:59:23.517Z,12.88
2019-05-21T22:01:54.833Z,12.95
2019-05-21T22:04:29.579Z,12.96
2019-05-21T22:06:56.647Z,12.94
2019-05-21T22:09:26.887Z,12.78
2019-05-21T22:11:54.877Z,12.81
2019-05-21T22:14:22.166Z,12.84
2019-05-21T22:16:51.766Z,12.91
2019-05-21T22:19:20.729Z,12.85
2019-05-21T22:21:47.700Z,12.75
2019-05-21T22:24:14.684Z,12.76
2019-05-21T22:26:42.037Z,12.64
2019-05-21T22:29:09.645Z,12.74
2019-05-21T22:31:36.620Z,12.71
2019-05-21T22:34:03.587Z,12.77
2019-05-21T22:36:30.533Z,12.62
2019-05-21T22:38:57.498Z,12.68
2019-05-21T22:41:24.447Z,12.70
2019-05-21T22:43:51.584Z,12.76
2019-05-21T22:46:18.756Z,12.56
2019-05-21T22:48:46.030Z,12.56
2019-05-21T22:51:13.044Z,12.63
2019-05-21T22:53:40.340Z,12.60
2019-05-21T22:56:07.304Z,12.58
2019-05-21T22:58:34.289Z,12.61
2019-05-21T23:01:02.701Z,12.61
2019-05-21T23:03:29.952Z,12.62
2019-05-21T23:05:56.939Z,12.56
2019-05-21T23:08:25.263Z,12.51
2019-05-21T23:10:52.231Z,12.49
2019-05-21T23:13:19.199Z,12.42
2019-05-21T23:15:47.093Z,12.43
2019-05-21T23:18:14.942Z,12.36
2019-05-21T23:20:42.819Z,12.47
2019-05-21T23:23:10.338Z,12.45
2019-05-21T23:25:38.798Z,12.40
2019-05-21T23:28:05.854Z,12.40
2019-05-21T23:30:33.015Z,12.44
2019-05-21T23:33:00.105Z,12.39
2019-05-21T23:35:27.958Z,12.49
2019-05-21T23:37:55.823Z,12.50
2019-05-21T23:40:23.789Z,12.40
2019-05-21T23:42:51.029Z,12.40
2019-05-21T23:45:18.350Z,12.29
2019-05-21T23:47:45.316Z,12.22
2019-05-21T23:50:14.562Z,12.43
2019-05-21T23:52:41.563Z,12.43
2019-05-21T23:55:09.026Z,12.40
2019-05-21T23:57:36.299Z,12.45
